sensor_id;sensor_type;location;lat;lon;timestamp;temperature;humidity
35746;DHT22;21870;42.812;74.628;2023-11-22T00:01:12;16.40;67.80
35746;DHT22;21870;42.812;74.628;2023-11-22T00:03:39;16.40;67.40
35746;DHT22;21870;42.812;74.628;2023-11-22T00:06:05;16.30;68.40
35746;DHT22;21870;42.812;74.628;2023-11-22T00:08:32;16.20;69.10
35746;DHT22;21870;42.812;74.628;2023-11-22T00:11:02;16.00;71.10
35746;DHT22;21870;42.812;74.628;2023-11-22T00:13:29;15.70;75.80
35746;DHT22;21870;42.812;74.628;2023-11-22T00:15:55;15.50;76.10
35746;DHT22;21870;42.812;74.628;2023-11-22T00:18:22;15.40;74.20
35746;DHT22;21870;42.812;74.628;2023-11-22T00:20:48;15.40;71.50
35746;DHT22;21870;42.812;74.628;2023-11-22T00:23:14;15.30;73.20
35746;DHT22;21870;42.812;74.628;2023-11-22T00:25:40;15.20;74.70
35746;DHT22;21870;42.812;74.628;2023-11-22T00:28:06;15.20;72.40
35746;DHT22;21870;42.812;74.628;2023-11-22T00:30:33;15.20;72.80
35746;DHT22;21870;42.812;74.628;2023-11-22T00:32:59;15.20;73.70
35746;DHT22;21870;42.812;74.628;2023-11-22T00:35:25;15.10;73.90
35746;DHT22;21870;42.812;74.628;2023-11-22T00:37:51;15.10;73.80
35746;DHT22;21870;42.812;74.628;2023-11-22T00:40:17;15.10;73.90
35746;DHT22;21870;42.812;74.628;2023-11-22T00:42:43;15.00;74.90
35746;DHT22;21870;42.812;74.628;2023-11-22T00:45:10;14.90;77.40
35746;DHT22;21870;42.812;74.628;2023-11-22T00:47:37;14.90;73.90
35746;DHT22;21870;42.812;74.628;2023-11-22T00:50:03;14.90;74.30
35746;DHT22;21870;42.812;74.628;2023-11-22T00:52:30;14.70;78.30
35746;DHT22;21870;42.812;74.628;2023-11-22T00:54:57;14.60;77.80
35746;DHT22;21870;42.812;74.628;2023-11-22T00:57:23;14.60;80.60
35746;DHT22;21870;42.812;74.628;2023-11-22T00:59:49;14.50;83.20
35746;DHT22;21870;42.812;74.628;2023-11-22T01:02:16;14.40;83.20
35746;DHT22;21870;42.812;74.628;2023-11-22T01:04:42;14.40;78.70
35746;DHT22;21870;42.812;74.628;2023-11-22T01:07:08;14.40;77.00
35746;DHT22;21870;42.812;74.628;2023-11-22T01:09:34;14.50;75.70
35746;DHT22;21870;42.812;74.628;2023-11-22T01:12:00;14.70;74.50
35746;DHT22;21870;42.812;74.628;2023-11-22T01:14:27;14.80;76.20
35746;DHT22;21870;42.812;74.628;2023-11-22T01:16:54;14.80;78.50
35746;DHT22;21870;42.812;74.628;2023-11-22T01:19:20;14.70;77.90
35746;DHT22;21870;42.812;74.628;2023-11-22T01:21:47;14.70;77.40
35746;DHT22;21870;42.812;74.628;2023-11-22T01:24:13;14.70;77.10
35746;DHT22;21870;42.812;74.628;2023-11-22T01:26:39;14.60;77.10
35746;DHT22;21870;42.812;74.628;2023-11-22T01:29:05;14.70;77.10
35746;DHT22;21870;42.812;74.628;2023-11-22T01:31:31;14.80;75.90
35746;DHT22;21870;42.812;74.628;2023-11-22T01:33:59;14.80;76.70
35746;DHT22;21870;42.812;74.628;2023-11-22T01:36:26;14.80;77.20
35746;DHT22;21870;42.812;74.628;2023-11-22T01:38:53;14.70;78.20
35746;DHT22;21870;42.812;74.628;2023-11-22T01:41:19;14.70;78.90
35746;DHT22;21870;42.812;74.628;2023-11-22T01:43:45;14.60;83.30
35746;DHT22;21870;42.812;74.628;2023-11-22T01:46:22;14.40;84.20
35746;DHT22;21870;42.812;74.628;2023-11-22T01:48:49;14.30;82.10
35746;DHT22;21870;42.812;74.628;2023-11-22T01:51:16;14.20;85.00
35746;DHT22;21870;42.812;74.628;2023-11-22T01:53:42;14.10;83.00
35746;DHT22;21870;42.812;74.628;2023-11-22T01:56:08;14.20;82.00
35746;DHT22;21870;42.812;74.628;2023-11-22T01:58:35;14.10;83.90
35746;DHT22;21870;42.812;74.628;2023-11-22T02:01:02;14.00;88.60
35746;DHT22;21870;42.812;74.628;2023-11-22T02:03:30;13.90;87.80
35746;DHT22;21870;42.812;74.628;2023-11-22T02:05:56;13.90;85.50
35746;DHT22;21870;42.812;74.628;2023-11-22T02:08:22;14.10;80.70
35746;DHT22;21870;42.812;74.628;2023-11-22T02:10:58;14.30;80.30
35746;DHT22;21870;42.812;74.628;2023-11-22T02:13:33;14.40;81.40
35746;DHT22;21870;42.812;74.628;2023-11-22T02:16:02;14.30;82.50
35746;DHT22;21870;42.812;74.628;2023-11-22T02:18:29;14.40;79.90
35746;DHT22;21870;42.812;74.628;2023-11-22T02:20:56;14.50;79.50
35746;DHT22;21870;42.812;74.628;2023-11-22T02:23:22;14.40;81.20
35746;DHT22;21870;42.812;74.628;2023-11-22T02:25:48;14.10;83.10
35746;DHT22;21870;42.812;74.628;2023-11-22T02:28:15;14.00;84.70
35746;DHT22;21870;42.812;74.628;2023-11-22T02:30:42;13.90;85.60
35746;DHT22;21870;42.812;74.628;2023-11-22T02:33:08;13.80;86.50
35746;DHT22;21870;42.812;74.628;2023-11-22T02:35:34;13.90;86.50
35746;DHT22;21870;42.812;74.628;2023-11-22T02:38:01;14.00;85.80
35746;DHT22;21870;42.812;74.628;2023-11-22T02:40:27;14.10;85.70
35746;DHT22;21870;42.812;74.628;2023-11-22T02:42:54;14.20;85.60
35746;DHT22;21870;42.812;74.628;2023-11-22T02:45:28;14.30;86.40
35746;DHT22;21870;42.812;74.628;2023-11-22T02:47:55;14.40;87.90
35746;DHT22;21870;42.812;74.628;2023-11-22T02:50:21;14.50;89.30
35746;DHT22;21870;42.812;74.628;2023-11-22T02:52:47;14.60;90.70
35746;DHT22;21870;42.812;74.628;2023-11-22T02:55:13;14.80;91.90
35746;DHT22;21870;42.812;74.628;2023-11-22T02:57:40;14.90;92.50
35746;DHT22;21870;42.812;74.628;2023-11-22T03:00:10;15.10;93.50
35746;DHT22;21870;42.812;74.628;2023-11-22T03:02:40;15.20;94.10
35746;DHT22;21870;42.812;74.628;2023-11-22T03:05:09;15.30;94.50
35746;DHT22;21870;42.812;74.628;2023-11-22T03:07:35;15.40;95.10
35746;DHT22;21870;42.812;74.628;2023-11-22T03:10:03;15.50;96.30
35746;DHT22;21870;42.812;74.628;2023-11-22T03:12:29;15.60;97.60
35746;DHT22;21870;42.812;74.628;2023-11-22T03:14:55;15.60;99.90
35746;DHT22;21870;42.812;74.628;2023-11-22T03:17:27;15.70;99.90
35746;DHT22;21870;42.812;74.628;2023-11-22T03:19:59;15.70;99.90
35746;DHT22;21870;42.812;74.628;2023-11-22T03:22:27;15.70;99.90
35746;DHT22;21870;42.812;74.628;2023-11-22T03:24:56;15.70;99.90
35746;DHT22;21870;42.812;74.628;2023-11-22T03:27:22;15.70;99.90
35746;DHT22;21870;42.812;74.628;2023-11-22T03:29:49;15.80;99.90
35746;DHT22;21870;42.812;74.628;2023-11-22T03:32:15;15.70;99.90
35746;DHT22;21870;42.812;74.628;2023-11-22T03:34:41;15.60;99.90
35746;DHT22;21870;42.812;74.628;2023-11-22T03:37:16;15.60;99.90
35746;DHT22;21870;42.812;74.628;2023-11-22T03:39:43;15.50;99.90
35746;DHT22;21870;42.812;74.628;2023-11-22T03:42:15;15.60;99.90
35746;DHT22;21870;42.812;74.628;2023-11-22T03:44:42;15.50;99.90
35746;DHT22;21870;42.812;74.628;2023-11-22T03:47:10;15.30;99.90
35746;DHT22;21870;42.812;74.628;2023-11-22T03:49:37;15.20;99.90
35746;DHT22;21870;42.812;74.628;2023-11-22T03:52:04;15.10;99.90
35746;DHT22;21870;42.812;74.628;2023-11-22T03:54:30;15.10;99.90
35746;DHT22;21870;42.812;74.628;2023-11-22T03:56:56;15.10;99.90
35746;DHT22;21870;42.812;74.628;2023-11-22T03:59:22;15.20;99.90
35746;DHT22;21870;42.812;74.628;2023-11-22T04:01:49;15.30;99.90
35746;DHT22;21870;42.812;74.628;2023-11-22T04:04:16;15.40;99.90
35746;DHT22;21870;42.812;74.628;2023-11-22T04:06:42;15.50;99.90
35746;DHT22;21870;42.812;74.628;2023-11-22T04:09:08;15.60;99.90
35746;DHT22;21870;42.812;74.628;2023-11-22T04:11:38;15.70;99.90
35746;DHT22;21870;42.812;74.628;2023-11-22T04:14:05;15.60;99.90
35746;DHT22;21870;42.812;74.628;2023-11-22T04:16:31;15.50;99.90
35746;DHT22;21870;42.812;74.628;2023-11-22T04:18:57;15.50;99.90
35746;DHT22;21870;42.812;74.628;2023-11-22T04:21:23;15.70;99.90
35746;DHT22;21870;42.812;74.628;2023-11-22T04:23:49;15.80;99.90
35746;DHT22;21870;42.812;74.628;2023-11-22T04:26:16;16.00;99.90
35746;DHT22;21870;42.812;74.628;2023-11-22T04:28:42;16.10;99.90
35746;DHT22;21870;42.812;74.628;2023-11-22T04:31:08;16.20;99.90
35746;DHT22;21870;42.812;74.628;2023-11-22T04:33:34;16.10;99.90
35746;DHT22;21870;42.812;74.628;2023-11-22T04:36:01;16.10;99.90
35746;DHT22;21870;42.812;74.628;2023-11-22T04:38:27;16.20;99.90
35746;DHT22;21870;42.812;74.628;2023-11-22T04:40:53;16.30;99.90
35746;DHT22;21870;42.812;74.628;2023-11-22T04:43:19;16.40;99.90
35746;DHT22;21870;42.812;74.628;2023-11-22T04:45:45;16.50;99.90
35746;DHT22;21870;42.812;74.628;2023-11-22T04:48:12;16.50;99.90
35746;DHT22;21870;42.812;74.628;2023-11-22T04:50:41;16.60;99.90
35746;DHT22;21870;42.812;74.628;2023-11-22T04:53:10;16.70;99.90
35746;DHT22;21870;42.812;74.628;2023-11-22T04:55:36;16.60;99.90
35746;DHT22;21870;42.812;74.628;2023-11-22T04:58:02;16.80;99.90
35746;DHT22;21870;42.812;74.628;2023-11-22T05:00:28;16.80;99.90
35746;DHT22;21870;42.812;74.628;2023-11-22T05:02:54;17.00;99.90
35746;DHT22;21870;42.812;74.628;2023-11-22T05:05:21;17.20;99.90
35746;DHT22;21870;42.812;74.628;2023-11-22T05:07:47;17.30;99.90
35746;DHT22;21870;42.812;74.628;2023-11-22T05:10:13;17.50;99.90
35746;DHT22;21870;42.812;74.628;2023-11-22T05:12:40;17.50;99.90
35746;DHT22;21870;42.812;74.628;2023-11-22T05:15:07;17.50;99.90
35746;DHT22;21870;42.812;74.628;2023-11-22T05:17:33;17.70;99.90
35746;DHT22;21870;42.812;74.628;2023-11-22T05:19:59;17.90;99.90
35746;DHT22;21870;42.812;74.628;2023-11-22T05:22:26;17.80;99.90
35746;DHT22;21870;42.812;74.628;2023-11-22T05:24:52;17.90;99.90
35746;DHT22;21870;42.812;74.628;2023-11-22T05:27:18;18.00;99.90
35746;DHT22;21870;42.812;74.628;2023-11-22T05:29:44;18.00;99.90
35746;DHT22;21870;42.812;74.628;2023-11-22T05:32:10;17.90;99.90
35746;DHT22;21870;42.812;74.628;2023-11-22T05:34:36;17.80;99.90
35746;DHT22;21870;42.812;74.628;2023-11-22T05:37:05;17.60;99.90
35746;DHT22;21870;42.812;74.628;2023-11-22T05:39:31;17.40;99.90
35746;DHT22;21870;42.812;74.628;2023-11-22T05:41:57;17.10;99.90
35746;DHT22;21870;42.812;74.628;2023-11-22T05:44:23;16.90;99.90
35746;DHT22;21870;42.812;74.628;2023-11-22T05:46:51;16.80;99.90
35746;DHT22;21870;42.812;74.628;2023-11-22T05:49:17;16.70;99.90
35746;DHT22;21870;42.812;74.628;2023-11-22T05:51:43;16.70;99.90
35746;DHT22;21870;42.812;74.628;2023-11-22T05:54:10;16.60;99.90
35746;DHT22;21870;42.812;74.628;2023-11-22T05:56:38;16.60;99.90
35746;DHT22;21870;42.812;74.628;2023-11-22T05:59:06;16.50;99.90
35746;DHT22;21870;42.812;74.628;2023-11-22T06:01:32;16.40;99.90
35746;DHT22;21870;42.812;74.628;2023-11-22T06:03:58;16.30;99.90
35746;DHT22;21870;42.812;74.628;2023-11-22T06:06:24;16.30;99.90
35746;DHT22;21870;42.812;74.628;2023-11-22T06:08:50;16.20;99.90
35746;DHT22;21870;42.812;74.628;2023-11-22T06:11:16;16.20;99.90
35746;DHT22;21870;42.812;74.628;2023-11-22T06:13:42;16.10;99.90
35746;DHT22;21870;42.812;74.628;2023-11-22T06:16:09;16.00;99.90
35746;DHT22;21870;42.812;74.628;2023-11-22T06:18:35;15.90;99.90
35746;DHT22;21870;42.812;74.628;2023-11-22T06:21:07;15.90;99.90
35746;DHT22;21870;42.812;74.628;2023-11-22T06:23:34;16.00;99.90
35746;DHT22;21870;42.812;74.628;2023-11-22T06:26:00;16.10;99.90
35746;DHT22;21870;42.812;74.628;2023-11-22T06:28:26;16.10;99.90
35746;DHT22;21870;42.812;74.628;2023-11-22T06:30:52;16.10;99.90
35746;DHT22;21870;42.812;74.628;2023-11-22T06:33:19;16.10;99.90
35746;DHT22;21870;42.812;74.628;2023-11-22T06:35:45;16.10;99.90
35746;DHT22;21870;42.812;74.628;2023-11-22T06:38:11;16.00;99.90
35746;DHT22;21870;42.812;74.628;2023-11-22T06:40:37;15.70;99.90
35746;DHT22;21870;42.812;74.628;2023-11-22T06:43:03;15.40;99.90
35746;DHT22;21870;42.812;74.628;2023-11-22T06:45:32;15.00;99.90
35746;DHT22;21870;42.812;74.628;2023-11-22T06:47:58;14.80;99.90
35746;DHT22;21870;42.812;74.628;2023-11-22T06:50:24;14.70;99.90
35746;DHT22;21870;42.812;74.628;2023-11-22T06:52:51;14.50;99.90
35746;DHT22;21870;42.812;74.628;2023-11-22T06:55:18;14.30;99.90
35746;DHT22;21870;42.812;74.628;2023-11-22T06:57:45;14.40;99.90
35746;DHT22;21870;42.812;74.628;2023-11-22T07:00:11;14.30;99.90
35746;DHT22;21870;42.812;74.628;2023-11-22T07:02:38;14.30;99.90
35746;DHT22;21870;42.812;74.628;2023-11-22T07:05:05;14.30;99.90
35746;DHT22;21870;42.812;74.628;2023-11-22T07:07:38;14.10;99.90
35746;DHT22;21870;42.812;74.628;2023-11-22T07:10:05;14.00;99.90
35746;DHT22;21870;42.812;74.628;2023-11-22T07:12:34;13.90;99.90
35746;DHT22;21870;42.812;74.628;2023-11-22T07:15:01;13.80;99.90
35746;DHT22;21870;42.812;74.628;2023-11-22T07:17:28;13.70;99.90
35746;DHT22;21870;42.812;74.628;2023-11-22T07:19:54;13.70;99.90
35746;DHT22;21870;42.812;74.628;2023-11-22T07:22:21;13.70;99.90
35746;DHT22;21870;42.812;74.628;2023-11-22T07:24:48;13.70;99.90
35746;DHT22;21870;42.812;74.628;2023-11-22T07:27:20;13.80;99.90
35746;DHT22;21870;42.812;74.628;2023-11-22T07:29:46;13.90;99.90
35746;DHT22;21870;42.812;74.628;2023-11-22T07:32:13;13.90;99.90
35746;DHT22;21870;42.812;74.628;2023-11-22T07:34:40;13.90;99.90
35746;DHT22;21870;42.812;74.628;2023-11-22T07:37:07;13.90;99.90
35746;DHT22;21870;42.812;74.628;2023-11-22T07:39:37;14.00;99.90
35746;DHT22;21870;42.812;74.628;2023-11-22T07:42:32;13.90;99.90
35746;DHT22;21870;42.812;74.628;2023-11-22T07:44:58;13.90;99.90
35746;DHT22;21870;42.812;74.628;2023-11-22T07:47:25;13.80;99.90
35746;DHT22;21870;42.812;74.628;2023-11-22T07:49:52;13.90;99.90
35746;DHT22;21870;42.812;74.628;2023-11-22T07:52:18;13.90;99.90
35746;DHT22;21870;42.812;74.628;2023-11-22T07:54:44;13.80;99.90
35746;DHT22;21870;42.812;74.628;2023-11-22T07:57:10;13.90;99.90
35746;DHT22;21870;42.812;74.628;2023-11-22T07:59:36;13.90;99.90
35746;DHT22;21870;42.812;74.628;2023-11-22T08:02:03;13.90;99.90
35746;DHT22;21870;42.812;74.628;2023-11-22T08:04:32;14.00;99.90
35746;DHT22;21870;42.812;74.628;2023-11-22T08:06:58;13.90;99.90
35746;DHT22;21870;42.812;74.628;2023-11-22T08:09:24;14.00;99.90
35746;DHT22;21870;42.812;74.628;2023-11-22T08:11:50;14.00;99.90
35746;DHT22;21870;42.812;74.628;2023-11-22T08:14:18;14.10;99.90
35746;DHT22;21870;42.812;74.628;2023-11-22T08:16:46;14.10;99.90
35746;DHT22;21870;42.812;74.628;2023-11-22T08:19:12;14.10;99.90
35746;DHT22;21870;42.812;74.628;2023-11-22T08:21:38;14.10;99.90
35746;DHT22;21870;42.812;74.628;2023-11-22T08:24:05;14.30;99.90
35746;DHT22;21870;42.812;74.628;2023-11-22T08:26:31;14.40;99.90
35746;DHT22;21870;42.812;74.628;2023-11-22T08:28:57;14.50;99.90
35746;DHT22;21870;42.812;74.628;2023-11-22T08:31:23;14.60;99.90
35746;DHT22;21870;42.812;74.628;2023-11-22T08:33:49;14.50;99.90
35746;DHT22;21870;42.812;74.628;2023-11-22T08:36:15;14.60;99.90
35746;DHT22;21870;42.812;74.628;2023-11-22T08:38:41;14.60;99.90
35746;DHT22;21870;42.812;74.628;2023-11-22T08:41:09;14.70;99.90
35746;DHT22;21870;42.812;74.628;2023-11-22T08:43:39;14.60;99.90
35746;DHT22;21870;42.812;74.628;2023-11-22T08:46:05;14.60;99.90
35746;DHT22;21870;42.812;74.628;2023-11-22T08:48:33;14.70;99.90
35746;DHT22;21870;42.812;74.628;2023-11-22T08:50:59;14.70;99.90
35746;DHT22;21870;42.812;74.628;2023-11-22T08:53:26;14.80;99.90
35746;DHT22;21870;42.812;74.628;2023-11-22T08:55:52;14.80;99.90
35746;DHT22;21870;42.812;74.628;2023-11-22T08:58:20;14.80;99.90
35746;DHT22;21870;42.812;74.628;2023-11-22T09:00:46;14.80;99.90
35746;DHT22;21870;42.812;74.628;2023-11-22T09:03:12;14.80;99.90
35746;DHT22;21870;42.812;74.628;2023-11-22T09:05:40;14.90;99.90
35746;DHT22;21870;42.812;74.628;2023-11-22T09:08:06;14.90;99.90
35746;DHT22;21870;42.812;74.628;2023-11-22T09:10:32;14.90;99.90
35746;DHT22;21870;42.812;74.628;2023-11-22T09:12:58;14.80;99.90
35746;DHT22;21870;42.812;74.628;2023-11-22T09:15:27;14.80;99.90
35746;DHT22;21870;42.812;74.628;2023-11-22T09:17:55;14.80;99.90
35746;DHT22;21870;42.812;74.628;2023-11-22T09:20:22;14.80;99.90
35746;DHT22;21870;42.812;74.628;2023-11-22T09:22:51;14.70;99.90
35746;DHT22;21870;42.812;74.628;2023-11-22T09:25:22;14.80;99.90
35746;DHT22;21870;42.812;74.628;2023-11-22T09:27:53;14.80;99.90
35746;DHT22;21870;42.812;74.628;2023-11-22T09:30:23;14.80;99.90
35746;DHT22;21870;42.812;74.628;2023-11-22T09:33:08;14.90;99.90
35746;DHT22;21870;42.812;74.628;2023-11-22T09:35:35;15.10;99.90
35746;DHT22;21870;42.812;74.628;2023-11-22T09:38:06;15.20;99.90
35746;DHT22;21870;42.812;74.628;2023-11-22T09:40:44;15.40;99.90
35746;DHT22;21870;42.812;74.628;2023-11-22T09:43:12;15.40;99.90
35746;DHT22;21870;42.812;74.628;2023-11-22T09:45:40;15.40;99.90
35746;DHT22;21870;42.812;74.628;2023-11-22T09:48:27;15.30;99.90
35746;DHT22;21870;42.812;74.628;2023-11-22T09:53:33;15.10;99.90
35746;DHT22;21870;42.812;74.628;2023-11-22T09:56:02;15.20;99.90
35746;DHT22;21870;42.812;74.628;2023-11-22T09:58:30;15.20;99.90
35746;DHT22;21870;42.812;74.628;2023-11-22T10:01:00;15.00;99.90
35746;DHT22;21870;42.812;74.628;2023-11-22T10:03:27;15.00;99.90
35746;DHT22;21870;42.812;74.628;2023-11-22T10:05:57;14.90;99.90
35746;DHT22;21870;42.812;74.628;2023-11-22T10:08:25;14.90;99.90
35746;DHT22;21870;42.812;74.628;2023-11-22T10:10:53;14.90;99.90
35746;DHT22;21870;42.812;74.628;2023-11-22T10:13:23;15.00;99.90
35746;DHT22;21870;42.812;74.628;2023-11-22T10:15:52;14.90;99.90
35746;DHT22;21870;42.812;74.628;2023-11-22T10:18:19;15.00;99.90
35746;DHT22;21870;42.812;74.628;2023-11-22T10:20:47;14.90;99.90
35746;DHT22;21870;42.812;74.628;2023-11-22T10:23:14;14.90;99.90
35746;DHT22;21870;42.812;74.628;2023-11-22T10:25:44;14.90;99.90
35746;DHT22;21870;42.812;74.628;2023-11-22T10:28:13;14.90;99.90
35746;DHT22;21870;42.812;74.628;2023-11-22T10:30:40;14.90;99.90
35746;DHT22;21870;42.812;74.628;2023-11-22T10:33:06;14.90;99.90
35746;DHT22;21870;42.812;74.628;2023-11-22T10:35:32;14.80;99.90
35746;DHT22;21870;42.812;74.628;2023-11-22T10:38:01;14.90;99.90
35746;DHT22;21870;42.812;74.628;2023-11-22T10:40:32;14.80;99.90
35746;DHT22;21870;42.812;74.628;2023-11-22T10:42:58;14.80;99.90
35746;DHT22;21870;42.812;74.628;2023-11-22T10:45:29;14.80;99.90
35746;DHT22;21870;42.812;74.628;2023-11-22T10:47:57;14.70;99.90
35746;DHT22;21870;42.812;74.628;2023-11-22T10:50:23;14.80;99.90
35746;DHT22;21870;42.812;74.628;2023-11-22T10:52:52;14.80;99.90
35746;DHT22;21870;42.812;74.628;2023-11-22T10:55:21;14.80;99.90
35746;DHT22;21870;42.812;74.628;2023-11-22T10:57:55;14.70;99.90
35746;DHT22;21870;42.812;74.628;2023-11-22T11:00:23;14.50;99.90
35746;DHT22;21870;42.812;74.628;2023-11-22T11:02:59;14.50;99.90
35746;DHT22;21870;42.812;74.628;2023-11-22T11:05:31;14.50;99.90
35746;DHT22;21870;42.812;74.628;2023-11-22T11:08:08;14.40;99.90
35746;DHT22;21870;42.812;74.628;2023-11-22T11:10:44;14.40;99.90
35746;DHT22;21870;42.812;74.628;2023-11-22T11:13:13;14.40;99.90
35746;DHT22;21870;42.812;74.628;2023-11-22T11:15:43;14.40;99.90
35746;DHT22;21870;42.812;74.628;2023-11-22T11:18:13;14.30;99.90
35746;DHT22;21870;42.812;74.628;2023-11-22T11:23:26;14.20;99.90
35746;DHT22;21870;42.812;74.628;2023-11-22T11:25:55;14.30;99.90
35746;DHT22;21870;42.812;74.628;2023-11-22T11:28:25;14.20;99.90
35746;DHT22;21870;42.812;74.628;2023-11-22T11:30:54;14.20;99.90
35746;DHT22;21870;42.812;74.628;2023-11-22T11:36:37;14.20;99.90
35746;DHT22;21870;42.812;74.628;2023-11-22T11:39:07;14.20;99.90
35746;DHT22;21870;42.812;74.628;2023-11-22T11:41:41;14.20;99.90
35746;DHT22;21870;42.812;74.628;2023-11-22T11:44:08;14.00;99.90
35746;DHT22;21870;42.812;74.628;2023-11-22T11:46:38;13.90;99.90
35746;DHT22;21870;42.812;74.628;2023-11-22T11:49:09;13.80;99.90
35746;DHT22;21870;42.812;74.628;2023-11-22T11:51:37;13.80;99.90
35746;DHT22;21870;42.812;74.628;2023-11-22T11:54:04;13.80;99.90
35746;DHT22;21870;42.812;74.628;2023-11-22T11:56:31;13.70;99.90
35746;DHT22;21870;42.812;74.628;2023-11-22T11:58:58;13.70;99.90
35746;DHT22;21870;42.812;74.628;2023-11-22T12:01:28;13.70;99.90
35746;DHT22;21870;42.812;74.628;2023-11-22T12:03:55;13.70;99.90
35746;DHT22;21870;42.812;74.628;2023-11-22T12:06:21;13.70;99.90
35746;DHT22;21870;42.812;74.628;2023-11-22T12:08:47;13.70;99.90
35746;DHT22;21870;42.812;74.628;2023-11-22T12:11:14;13.60;99.90
35746;DHT22;21870;42.812;74.628;2023-11-22T12:13:41;13.60;99.90
35746;DHT22;21870;42.812;74.628;2023-11-22T12:16:16;13.60;99.90
35746;DHT22;21870;42.812;74.628;2023-11-22T12:18:43;13.60;99.90
35746;DHT22;21870;42.812;74.628;2023-11-22T12:21:09;13.60;99.90
35746;DHT22;21870;42.812;74.628;2023-11-22T12:23:42;13.60;99.90
35746;DHT22;21870;42.812;74.628;2023-11-22T12:26:13;13.60;99.90
35746;DHT22;21870;42.812;74.628;2023-11-22T12:28:47;13.70;99.90
35746;DHT22;21870;42.812;74.628;2023-11-22T12:31:14;13.70;99.90
35746;DHT22;21870;42.812;74.628;2023-11-22T12:33:42;13.80;99.90
35746;DHT22;21870;42.812;74.628;2023-11-22T12:36:09;13.80;99.90
35746;DHT22;21870;42.812;74.628;2023-11-22T12:38:36;13.80;99.90
35746;DHT22;21870;42.812;74.628;2023-11-22T12:41:03;13.80;99.90
35746;DHT22;21870;42.812;74.628;2023-11-22T12:43:32;13.90;99.90
35746;DHT22;21870;42.812;74.628;2023-11-22T12:46:06;13.90;99.90
35746;DHT22;21870;42.812;74.628;2023-11-22T12:48:42;13.90;99.90
35746;DHT22;21870;42.812;74.628;2023-11-22T12:51:17;13.90;99.90
35746;DHT22;21870;42.812;74.628;2023-11-22T12:53:48;13.90;99.90
35746;DHT22;21870;42.812;74.628;2023-11-22T12:56:15;14.00;99.90
35746;DHT22;21870;42.812;74.628;2023-11-22T12:58:41;14.00;99.90
35746;DHT22;21870;42.812;74.628;2023-11-22T13:01:07;13.90;99.90
35746;DHT22;21870;42.812;74.628;2023-11-22T13:03:33;13.90;99.90
35746;DHT22;21870;42.812;74.628;2023-11-22T13:05:59;13.80;99.90
35746;DHT22;21870;42.812;74.628;2023-11-22T13:08:25;13.80;99.90
35746;DHT22;21870;42.812;74.628;2023-11-22T13:10:55;13.80;99.90
35746;DHT22;21870;42.812;74.628;2023-11-22T13:13:24;13.80;99.90
35746;DHT22;21870;42.812;74.628;2023-11-22T13:15:51;13.80;99.90
35746;DHT22;21870;42.812;74.628;2023-11-22T13:18:18;13.80;99.90
35746;DHT22;21870;42.812;74.628;2023-11-22T13:20:44;13.70;99.90
35746;DHT22;21870;42.812;74.628;2023-11-22T13:23:11;13.70;99.90
35746;DHT22;21870;42.812;74.628;2023-11-22T13:25:39;13.80;99.90
35746;DHT22;21870;42.812;74.628;2023-11-22T13:28:07;13.80;99.90
35746;DHT22;21870;42.812;74.628;2023-11-22T13:30:34;13.80;99.90
35746;DHT22;21870;42.812;74.628;2023-11-22T13:33:01;13.80;99.90
35746;DHT22;21870;42.812;74.628;2023-11-22T13:35:28;13.70;99.90
35746;DHT22;21870;42.812;74.628;2023-11-22T13:37:59;13.70;99.90
35746;DHT22;21870;42.812;74.628;2023-11-22T13:40:28;13.60;99.90
35746;DHT22;21870;42.812;74.628;2023-11-22T13:42:57;13.70;99.90
35746;DHT22;21870;42.812;74.628;2023-11-22T13:45:24;13.60;99.90
35746;DHT22;21870;42.812;74.628;2023-11-22T13:47:55;13.50;99.90
35746;DHT22;21870;42.812;74.628;2023-11-22T13:50:26;13.60;99.90
35746;DHT22;21870;42.812;74.628;2023-11-22T13:52:53;13.50;99.90
35746;DHT22;21870;42.812;74.628;2023-11-22T13:55:20;13.40;99.90
35746;DHT22;21870;42.812;74.628;2023-11-22T13:57:50;13.50;99.90
35746;DHT22;21870;42.812;74.628;2023-11-22T14:00:17;13.40;99.90
35746;DHT22;21870;42.812;74.628;2023-11-22T14:02:54;13.40;99.90
35746;DHT22;21870;42.812;74.628;2023-11-22T14:05:24;13.50;99.90
35746;DHT22;21870;42.812;74.628;2023-11-22T14:07:50;13.50;99.90
35746;DHT22;21870;42.812;74.628;2023-11-22T14:10:18;13.50;99.90
35746;DHT22;21870;42.812;74.628;2023-11-22T14:12:44;13.50;99.90
35746;DHT22;21870;42.812;74.628;2023-11-22T14:15:13;13.50;99.90
35746;DHT22;21870;42.812;74.628;2023-11-22T14:17:40;13.60;99.90
35746;DHT22;21870;42.812;74.628;2023-11-22T14:20:10;13.60;99.90
35746;DHT22;21870;42.812;74.628;2023-11-22T14:22:37;13.70;99.90
35746;DHT22;21870;42.812;74.628;2023-11-22T14:25:05;13.70;99.90
35746;DHT22;21870;42.812;74.628;2023-11-22T14:27:34;13.80;99.90
35746;DHT22;21870;42.812;74.628;2023-11-22T14:30:00;13.90;99.90
35746;DHT22;21870;42.812;74.628;2023-11-22T14:32:31;13.80;99.90
35746;DHT22;21870;42.812;74.628;2023-11-22T14:34:57;13.90;99.90
35746;DHT22;21870;42.812;74.628;2023-11-22T14:37:23;13.80;99.90
35746;DHT22;21870;42.812;74.628;2023-11-22T14:39:50;13.70;99.90
35746;DHT22;21870;42.812;74.628;2023-11-22T14:42:16;13.80;99.90
35746;DHT22;21870;42.812;74.628;2023-11-22T14:44:42;13.80;99.90
35746;DHT22;21870;42.812;74.628;2023-11-22T14:47:08;13.70;99.90
35746;DHT22;21870;42.812;74.628;2023-11-22T14:49:52;13.70;99.90
35746;DHT22;21870;42.812;74.628;2023-11-22T14:52:19;13.70;99.90
35746;DHT22;21870;42.812;74.628;2023-11-22T14:54:47;13.70;99.90
35746;DHT22;21870;42.812;74.628;2023-11-22T14:57:14;13.70;99.90
35746;DHT22;21870;42.812;74.628;2023-11-22T14:59:43;13.70;99.90
35746;DHT22;21870;42.812;74.628;2023-11-22T15:02:10;13.70;99.90
35746;DHT22;21870;42.812;74.628;2023-11-22T15:04:38;13.60;99.90
35746;DHT22;21870;42.812;74.628;2023-11-22T15:07:04;13.50;99.90
35746;DHT22;21870;42.812;74.628;2023-11-22T15:09:34;13.60;99.90
35746;DHT22;21870;42.812;74.628;2023-11-22T15:12:00;13.50;99.90
35746;DHT22;21870;42.812;74.628;2023-11-22T15:14:33;13.50;99.90
35746;DHT22;21870;42.812;74.628;2023-11-22T15:17:00;13.50;99.90
35746;DHT22;21870;42.812;74.628;2023-11-22T15:19:31;13.50;99.90
35746;DHT22;21870;42.812;74.628;2023-11-22T15:21:57;13.40;99.90
35746;DHT22;21870;42.812;74.628;2023-11-22T15:24:23;13.40;99.90
35746;DHT22;21870;42.812;74.628;2023-11-22T15:26:49;13.40;99.90